首页
METAR-TAF:

METAR-TAF

机场 :

Rochester International Airport

羅徹斯特, 明尼蘇達州, 美国

纬度: 43-54-15N, 经度: 092-29-30W, 海拔: 401米

当前天气观测

该预报发布于40分钟前的14:54 UTC
风速6节,风向西北
温度 -16°C
湿度 84%
气压 1037 hPa
能見度: 4.8公里
阴天层高于1900英尺
小雪, 轻雾

METAR: KRST 201454Z 32006KT 3SM -SN BR OVC019 M16/M18 A3061 RMK AO2 SFC VIS 3 SLP402 P0000 60001 T11561178 53013 $

时间: 09:34 (15:34 UTC)

预报

该预报发布于1小时和6分钟前的14:28 UTC
预报有效从20日的 14点(UTC)到 21日的 12点(UTC)
风速6节,风向北转西北
能見度: 3.2公里
阴天层高于2100英尺
小雪
从 20日的 1500点(UTC)
风速6节,风向北转西北
能見度: 10公里
阴天层高于2500英尺
短暂存在
从 20日的 15点(UTC)到 20日的 16点(UTC)
能見度: 4.8公里
小雪
从 20日的 1800点(UTC)
风速5节,风向北转西北
能見度: 10公里
散云层高于2500英尺
从 21日的 0000点(UTC)
风速4节,风向多变
能見度: 10公里
散云层高于4000英尺

TAF: KRST 201428Z 2014/2112 33006KT 2SM -SN OVC021 FM201500 34006KT P6SM OVC025 TEMPO 2015/2016 3SM -SN FM201800 34005KT P6SM SCT025 FM210000 VRB04KT P6SM SCT040

超过4000个机场的气象观测和天气预报(METAR&TAF报告)。

可查询的气象台以黄色和红色小点在地图上表示。

将鼠标移到小点上方,可查看气象台名称。

然后点击查看天气观测和预报。

如需切换地图:点击带黑十字的绿色按钮放大地图;点击带横线的绿色按钮缩小地图;或者点击绿色箭头查看邻近地区的地图。


METAR-TAF: